Pagrindinis puslapis
METAR-TAF:

METAR-TAF

Oro uostai :

Draugen, Norvegija

platuma: 64-21-20N, ilguma: 007-47-30E, Aukštis: 0 m

Dabartinis oras

Ataskaita buvo paskelbta 20 minutes, ne 19:50 UTC
Vėjas 23 kt iš Rytų
Temperatūra 10°C
Drėgmė 82%
Slėgis 1008 hPa
Matomumas 10 km arba daugiau

METAR: ENDR 221950Z AUTO 08023KT 9999NDV BKN068/// 10/07 Q1008 W///S3

Laikas: 22:10 (20:10 UTC)


TAF: trūkstamas

Orai ataskaitas ir orų prognozės (METAR, TAF).

turimą stotys yra geltonos ir raudonos taškus žemėlapyje.

Perkelti pele per norėdami pamatyti stoties vardą.

Tada spustelėkite, norėdami matyti oro stebėjimo ir prognozės.

Norėdami pakeisti žemėlapį: spustelėkite ant žalios mygtukų su juodo kryžiaus žemyn,; žalią mygtuką su brūkšneliu, jei norite nutolinti; arba žalių rodyklių gretimoms žemėlapius.


METAR-TAF: